createdAt,value
2019-02-08T00:01:33.659Z,22.43
2019-02-08T00:04:03.346Z,24.00
2019-02-08T00:06:33.252Z,27.07
2019-02-08T00:09:04.449Z,25.50
2019-02-08T00:11:34.054Z,21.00
2019-02-08T00:14:04.430Z,23.37
2019-02-08T00:16:34.791Z,30.17
2019-02-08T00:19:04.558Z,31.87
2019-02-08T00:21:37.996Z,20.80
2019-02-08T00:24:07.791Z,16.90
2019-02-08T00:26:37.400Z,26.03
2019-02-08T00:29:07.498Z,17.37
2019-02-08T00:31:37.093Z,20.53
2019-02-08T00:34:06.691Z,17.13
2019-02-08T00:36:36.280Z,17.73
2019-02-08T00:39:08.586Z,20.50
2019-02-08T00:41:38.235Z,27.37
2019-02-08T00:44:08.002Z,22.93
2019-02-08T00:46:37.605Z,28.83
2019-02-08T00:49:07.191Z,20.03
2019-02-08T00:51:36.845Z,18.10
2019-02-08T00:54:06.546Z,27.70
2019-02-08T00:56:36.125Z,25.23
2019-02-08T00:59:06.107Z,19.48
2019-02-08T01:01:35.682Z,25.63
2019-02-08T01:04:05.506Z,29.77
2019-02-08T01:06:35.102Z,34.53
2019-02-08T01:09:07.586Z,29.33
2019-02-08T01:11:37.195Z,24.07
2019-02-08T01:14:06.993Z,24.37
2019-02-08T01:16:36.606Z,26.60
2019-02-08T01:19:06.855Z,24.63
2019-02-08T01:21:37.206Z,18.07
2019-02-08T01:24:06.878Z,22.30
2019-02-08T01:26:38.655Z,22.37
2019-02-08T01:29:08.338Z,16.77
2019-02-08T01:31:37.911Z,17.67
2019-02-08T01:34:08.235Z,27.43
2019-02-08T01:36:38.551Z,18.02
2019-02-08T01:39:08.477Z,26.63
2019-02-08T01:41:38.791Z,27.77
2019-02-08T01:44:08.692Z,23.50
2019-02-08T01:46:38.326Z,28.00
2019-02-08T01:49:08.667Z,24.57
2019-02-08T01:51:38.358Z,32.53
2019-02-08T01:54:07.867Z,29.77
2019-02-08T01:56:38.166Z,29.67
2019-02-08T01:59:07.903Z,26.60
2019-02-08T02:01:37.495Z,27.50
2019-02-08T02:04:07.116Z,23.10
2019-02-08T02:06:36.705Z,25.53
2019-02-08T02:09:07.648Z,21.63
2019-02-08T02:11:37.378Z,29.87
2019-02-08T02:14:07.007Z,18.43
2019-02-08T02:16:36.633Z,27.27
2019-02-08T02:19:06.446Z,24.20
2019-02-08T02:21:36.022Z,25.53
2019-02-08T02:24:05.642Z,24.70
2019-02-08T02:26:35.232Z,19.47
2019-02-08T02:29:04.838Z,20.33
2019-02-08T02:31:34.590Z,14.40
2019-02-08T02:34:04.580Z,7.55
2019-02-08T02:36:34.804Z,9.00
2019-02-08T02:39:07.494Z,10.53
2019-02-08T02:41:37.131Z,14.17
2019-02-08T02:44:06.903Z,20.60
2019-02-08T02:46:37.154Z,22.33
2019-02-08T02:49:06.803Z,20.50
2019-02-08T02:51:36.415Z,17.55
2019-02-08T02:54:06.356Z,17.50
2019-02-08T02:56:35.932Z,24.50
2019-02-08T02:59:05.790Z,24.73
2019-02-08T03:01:35.390Z,20.10
2019-02-08T03:04:05.171Z,19.00
2019-02-08T03:06:34.776Z,18.17
2019-02-08T03:09:06.123Z,22.73
2019-02-08T03:11:36.471Z,23.20
2019-02-08T03:14:06.227Z,31.43
2019-02-08T03:16:35.822Z,31.80
2019-02-08T03:19:06.158Z,20.57
2019-02-08T03:21:36.899Z,23.77
2019-02-08T03:24:12.840Z,22.63
2019-02-08T03:26:38.458Z,25.23
2019-02-08T03:29:08.160Z,24.30
2019-02-08T03:31:37.735Z,27.10
2019-02-08T03:34:07.302Z,27.77
2019-02-08T03:36:36.869Z,31.37
2019-02-08T03:39:08.014Z,30.33
2019-02-08T03:41:38.370Z,35.53
2019-02-08T03:44:08.055Z,35.03
2019-02-08T03:46:37.768Z,29.13
2019-02-08T03:49:07.472Z,35.00
2019-02-08T03:51:37.055Z,38.70
2019-02-08T03:54:07.336Z,26.80
2019-02-08T03:56:37.066Z,36.03
2019-02-08T03:59:06.955Z,30.10
2019-02-08T04:01:37.240Z,26.93
2019-02-08T04:04:14.480Z,28.13
2019-02-08T04:06:44.086Z,23.83
2019-02-08T04:09:13.666Z,31.10
2019-02-08T04:11:43.244Z,28.13
2019-02-08T04:14:12.839Z,33.83
2019-02-08T04:16:42.414Z,28.73
2019-02-08T04:19:11.939Z,26.07
2019-02-08T04:21:42.187Z,36.27
2019-02-08T04:24:12.604Z,27.17
2019-02-08T04:26:42.954Z,28.80
2019-02-08T04:29:12.667Z,31.70
2019-02-08T04:31:42.690Z,26.00
2019-02-08T04:34:12.558Z,28.87
2019-02-08T04:36:43.983Z,30.73
2019-02-08T04:39:13.798Z,26.67
2019-02-08T04:41:43.395Z,30.30
2019-02-08T04:44:12.939Z,26.63
2019-02-08T04:46:42.507Z,31.83
2019-02-08T04:49:12.015Z,33.00
2019-02-08T04:51:41.650Z,25.53
2019-02-08T04:54:11.331Z,28.00
2019-02-08T04:56:41.242Z,29.48
2019-02-08T04:59:10.766Z,27.97
2019-02-08T05:01:40.355Z,29.17
2019-02-08T05:04:09.946Z,23.63
2019-02-08T05:06:39.535Z,22.07
2019-02-08T05:09:09.122Z,27.27
2019-02-08T05:11:38.735Z,29.40
2019-02-08T05:14:08.330Z,23.30
2019-02-08T05:16:38.609Z,19.03
2019-02-08T05:19:08.971Z,35.50
2019-02-08T05:21:38.662Z,33.77
2019-02-08T05:24:09.000Z,27.80
2019-02-08T05:26:38.700Z,19.93
2019-02-08T05:29:08.270Z,23.93
2019-02-08T05:31:37.838Z,25.63
2019-02-08T05:34:07.451Z,28.03
2019-02-08T05:36:37.031Z,26.50
2019-02-08T05:39:09.034Z,28.70
2019-02-08T05:41:38.634Z,28.20
2019-02-08T05:44:08.215Z,26.80
2019-02-08T05:46:37.814Z,27.23
2019-02-08T05:49:08.157Z,24.80
2019-02-08T05:51:38.435Z,27.90
2019-02-08T05:54:08.788Z,22.73
2019-02-08T05:56:38.973Z,26.20
2019-02-08T05:59:08.758Z,15.80
2019-02-08T06:01:39.056Z,29.27
2019-02-08T06:04:08.930Z,24.20
2019-02-08T06:06:38.519Z,20.90
2019-02-08T06:09:09.619Z,17.73
2019-02-08T06:11:39.332Z,21.02
2019-02-08T06:14:09.038Z,26.07
2019-02-08T06:16:39.296Z,23.93
2019-02-08T06:19:08.978Z,27.50
2019-02-08T06:21:39.299Z,22.83
2019-02-08T06:24:08.970Z,21.23
2019-02-08T06:26:38.587Z,24.70
2019-02-08T06:29:08.188Z,22.57
2019-02-08T06:31:37.766Z,28.10
2019-02-08T06:34:07.370Z,21.60
2019-02-08T06:36:36.954Z,24.67
2019-02-08T06:39:09.697Z,27.60
2019-02-08T06:41:39.382Z,29.13
2019-02-08T06:44:08.976Z,32.50
2019-02-08T06:46:38.996Z,23.60
2019-02-08T06:49:08.618Z,28.30
2019-02-08T06:51:38.220Z,25.43
2019-02-08T06:54:08.469Z,25.17
2019-02-08T06:56:59.226Z,30.20
2019-02-08T06:59:49.509Z,19.60
2019-02-08T07:02:31.946Z,27.23
2019-02-08T07:05:26.369Z,22.13
2019-02-08T07:08:24.142Z,24.33
2019-02-08T07:11:15.747Z,18.63
2019-02-08T07:14:07.402Z,25.37
2019-02-08T07:17:11.115Z,21.23
2019-02-08T07:20:05.537Z,18.90
2019-02-08T07:22:47.762Z,20.93
2019-02-08T07:25:30.578Z,19.47
2019-02-08T07:28:10.095Z,23.33
2019-02-08T07:30:59.060Z,23.97
2019-02-08T07:33:42.219Z,17.53
2019-02-08T07:36:34.122Z,21.70
2019-02-08T07:39:27.063Z,22.47
2019-02-08T07:42:19.746Z,21.47
2019-02-08T07:45:07.355Z,21.47
2019-02-08T07:47:51.429Z,19.83
2019-02-08T07:50:44.867Z,16.67
2019-02-08T07:53:29.454Z,24.00
2019-02-08T07:56:17.606Z,26.87
2019-02-08T07:59:06.358Z,19.87
2019-02-08T08:01:58.350Z,21.10
2019-02-08T08:04:51.615Z,16.70
2019-02-08T08:07:31.858Z,19.23
2019-02-08T08:10:23.371Z,18.47
2019-02-08T08:13:03.761Z,21.97
2019-02-08T08:16:11.283Z,14.93
2019-02-08T08:19:09.307Z,22.43
2019-02-08T08:22:04.332Z,19.80
2019-02-08T08:24:55.019Z,20.30
2019-02-08T08:27:40.959Z,22.63
2019-02-08T08:30:32.431Z,17.47
2019-02-08T08:33:24.211Z,14.10
2019-02-08T08:36:17.134Z,17.50
2019-02-08T08:39:08.743Z,17.57
2019-02-08T08:42:29.228Z,23.67
2019-02-08T08:45:16.548Z,15.07
2019-02-08T08:47:54.485Z,20.07
2019-02-08T08:50:35.807Z,16.63
2019-02-08T08:53:36.508Z,18.50
2019-02-08T08:56:28.202Z,20.73
2019-02-08T08:59:19.656Z,13.93
2019-02-08T09:02:10.078Z,15.17
2019-02-08T09:05:21.201Z,23.97
2019-02-08T09:08:26.214Z,16.23
2019-02-08T09:11:10.730Z,21.17
2019-02-08T09:13:58.096Z,13.13
2019-02-08T09:16:49.512Z,16.67
2019-02-08T09:19:38.215Z,18.17
2019-02-08T09:22:34.939Z,16.60
2019-02-08T09:25:08.818Z,16.93
2019-02-08T09:27:53.447Z,22.93
2019-02-08T09:30:48.374Z,18.20
2019-02-08T09:33:36.298Z,23.00
2019-02-08T09:36:22.152Z,24.73
2019-02-08T09:39:38.299Z,19.87
2019-02-08T09:42:49.387Z,13.67
2019-02-08T09:45:50.362Z,18.27
2019-02-08T09:48:51.480Z,15.23
2019-02-08T09:51:38.595Z,16.17
2019-02-08T09:54:36.165Z,19.90
2019-02-08T09:57:24.951Z,20.20
2019-02-08T10:00:39.196Z,22.17
2019-02-08T10:03:37.236Z,22.50
2019-02-08T10:06:28.912Z,26.33
2019-02-08T10:09:53.844Z,17.93
2019-02-08T10:12:42.583Z,9.27
2019-02-08T10:16:02.768Z,26.63
2019-02-08T10:19:00.767Z,23.13
2019-02-08T10:22:21.170Z,21.87
2019-02-08T10:25:28.306Z,21.30
2019-02-08T10:28:35.287Z,19.13
2019-02-08T10:31:22.542Z,19.47
2019-02-08T10:34:50.207Z,20.53
2019-02-08T10:37:39.002Z,18.00
2019-02-08T10:40:33.913Z,24.07
2019-02-08T10:43:21.506Z,27.37
2019-02-08T10:46:15.172Z,14.07
2019-02-08T10:49:22.193Z,15.63
2019-02-08T10:52:10.231Z,14.43
2019-02-08T10:55:46.041Z,18.57
2019-02-08T10:58:57.479Z,26.17
2019-02-08T11:01:45.883Z,24.80
2019-02-08T11:04:45.725Z,18.13
2019-02-08T11:07:43.538Z,16.13
2019-02-08T11:10:30.674Z,20.23
2019-02-08T11:13:22.158Z,14.47
2019-02-08T11:16:22.124Z,16.87
2019-02-08T11:19:23.672Z,22.47
2019-02-08T11:21:53.694Z,21.03
2019-02-08T11:24:24.187Z,17.37
2019-02-08T11:26:55.387Z,18.87
2019-02-08T11:29:25.195Z,17.20
2019-02-08T11:31:54.798Z,17.83
2019-02-08T11:34:24.510Z,15.70
2019-02-08T11:36:54.145Z,14.57
2019-02-08T11:39:23.934Z,16.00
2019-02-08T11:41:53.546Z,17.50
2019-02-08T11:44:23.422Z,18.93
2019-02-08T11:46:53.192Z,13.63
2019-02-08T11:49:22.764Z,16.47
2019-02-08T11:51:52.442Z,26.10
2019-02-08T11:54:22.054Z,19.17
2019-02-08T11:56:52.302Z,16.17
2019-02-08T11:59:21.986Z,25.67
2019-02-08T12:01:52.391Z,21.77
2019-02-08T12:04:22.259Z,23.03
2019-02-08T12:06:51.965Z,16.50
2019-02-08T12:09:21.554Z,19.33
2019-02-08T12:11:51.154Z,18.30
2019-02-08T12:14:21.034Z,17.53
2019-02-08T12:16:51.285Z,24.97
2019-02-08T12:19:21.014Z,21.67
2019-02-08T12:21:50.620Z,23.90
2019-02-08T12:24:20.976Z,16.17
2019-02-08T12:26:52.167Z,15.73
2019-02-08T12:29:21.791Z,21.67
2019-02-08T12:31:51.731Z,22.33
2019-02-08T12:34:21.326Z,19.37
2019-02-08T12:36:50.955Z,23.03
2019-02-08T12:39:20.887Z,23.47
2019-02-08T12:41:50.502Z,16.97
2019-02-08T12:44:20.534Z,24.27
2019-02-08T12:46:50.778Z,19.63
2019-02-08T12:49:20.854Z,18.05
2019-02-08T12:51:51.158Z,26.27
2019-02-08T12:54:21.459Z,17.97
2019-02-08T12:56:51.214Z,17.93
2019-02-08T12:59:20.818Z,21.37
2019-02-08T13:01:50.355Z,23.70
2019-02-08T13:04:20.445Z,23.23
2019-02-08T13:06:50.085Z,22.27
2019-02-08T13:09:20.445Z,21.57
2019-02-08T13:11:50.023Z,23.87
2019-02-08T13:14:20.447Z,33.17
2019-02-08T13:16:50.061Z,24.07
2019-02-08T13:19:21.063Z,23.03
2019-02-08T13:21:51.475Z,27.97
2019-02-08T13:24:21.147Z,27.73
2019-02-08T13:26:52.999Z,25.53
2019-02-08T13:29:22.743Z,22.83
2019-02-08T13:31:52.455Z,22.77
2019-02-08T13:34:22.063Z,37.03
2019-02-08T13:36:51.637Z,18.50
2019-02-08T13:39:21.947Z,24.20
2019-02-08T13:41:51.642Z,29.63
2019-02-08T13:44:21.247Z,26.47
2019-02-08T13:46:50.862Z,19.63
2019-02-08T13:49:20.479Z,28.70
2019-02-08T13:51:50.839Z,25.33
2019-02-08T13:54:20.519Z,22.00
2019-02-08T13:56:50.479Z,21.83
2019-02-08T13:59:20.162Z,29.87
2019-02-08T14:01:49.781Z,23.10
2019-02-08T14:04:20.129Z,25.33
2019-02-08T14:06:49.767Z,23.73
2019-02-08T14:09:19.994Z,27.45
2019-02-08T14:11:49.519Z,25.53
2019-02-08T14:14:19.870Z,25.83
2019-02-08T14:16:49.466Z,27.77
2019-02-08T14:19:19.838Z,24.30
2019-02-08T14:21:49.373Z,24.63
2019-02-08T14:24:19.622Z,27.07
2019-02-08T14:26:49.299Z,24.80
2019-02-08T14:29:18.948Z,25.10
2019-02-08T14:31:48.595Z,22.50
2019-02-08T14:34:18.927Z,26.03
2019-02-08T14:36:48.598Z,25.70
2019-02-08T14:39:18.167Z,22.50
2019-02-08T14:41:48.454Z,17.10
2019-02-08T14:44:19.017Z,33.03
2019-02-08T14:46:48.899Z,28.13
2019-02-08T14:49:19.266Z,26.67
2019-02-08T14:51:49.571Z,24.63
2019-02-08T14:54:20.187Z,30.30
2019-02-08T14:56:49.791Z,24.47
2019-02-08T14:59:19.438Z,31.80
2019-02-08T15:01:49.040Z,21.73
2019-02-08T15:04:18.646Z,32.20
2019-02-08T15:06:48.258Z,39.27
2019-02-08T15:09:17.880Z,35.33
2019-02-08T15:11:48.143Z,32.77
2019-02-08T15:14:18.592Z,38.03
2019-02-08T15:16:48.376Z,28.80
2019-02-08T15:19:18.734Z,27.77
2019-02-08T15:21:48.338Z,52.30
2019-02-08T15:24:18.606Z,27.07
2019-02-08T15:26:48.238Z,28.47
2019-02-08T15:29:18.624Z,33.53
2019-02-08T15:31:48.275Z,27.83
2019-02-08T15:34:18.620Z,39.23
2019-02-08T15:36:49.377Z,29.77
2019-02-08T15:39:19.337Z,29.43
2019-02-08T15:41:48.858Z,35.10
2019-02-08T15:44:19.192Z,36.33
2019-02-08T15:46:48.898Z,39.40
2019-02-08T15:49:19.316Z,28.03
2019-02-08T15:51:48.905Z,30.13
2019-02-08T15:54:19.223Z,32.27
2019-02-08T15:56:49.506Z,28.83
2019-02-08T15:59:19.966Z,31.73
2019-02-08T16:01:50.060Z,33.93
2019-02-08T16:04:19.819Z,30.70
2019-02-08T16:06:49.426Z,36.80
2019-02-08T16:09:19.877Z,34.40
2019-02-08T16:11:49.562Z,29.53
2019-02-08T16:14:19.194Z,37.40
2019-02-08T16:16:48.803Z,26.73
2019-02-08T16:19:19.163Z,29.77
2019-02-08T16:21:48.755Z,33.40
2019-02-08T16:24:18.914Z,52.03
2019-02-08T16:26:48.505Z,28.47
2019-02-08T16:29:18.777Z,38.30
2019-02-08T16:31:48.436Z,23.17
2019-02-08T16:34:19.003Z,27.10
2019-02-08T16:36:48.578Z,34.37
2019-02-08T16:39:19.009Z,26.20
2019-02-08T16:41:48.610Z,25.83
2019-02-08T16:44:19.045Z,32.03
2019-02-08T16:46:49.380Z,28.10
2019-02-08T16:49:19.762Z,33.98
2019-02-08T16:51:49.342Z,34.63
2019-02-08T16:54:19.497Z,29.48
2019-02-08T16:56:49.130Z,35.83
2019-02-08T16:59:19.362Z,26.43
2019-02-08T17:01:49.670Z,35.90
2019-02-08T17:04:19.638Z,25.90
2019-02-08T17:06:49.238Z,18.67
2019-02-08T17:09:18.874Z,29.10
2019-02-08T17:11:49.337Z,21.60
2019-02-08T17:14:19.559Z,28.93
2019-02-08T17:16:49.270Z,20.03
2019-02-08T17:19:19.590Z,18.52
2019-02-08T17:21:49.214Z,21.87
2019-02-08T17:24:19.120Z,24.20
2019-02-08T17:26:48.724Z,29.87
2019-02-08T17:29:19.773Z,27.87
2019-02-08T17:31:49.454Z,20.07
2019-02-08T17:34:18.963Z,26.63
2019-02-08T17:36:48.607Z,27.53
2019-02-08T17:39:18.946Z,29.13
2019-02-08T17:41:48.916Z,30.43
2019-02-08T17:44:19.154Z,22.20
2019-02-08T17:46:49.530Z,33.03
2019-02-08T17:49:19.250Z,37.03
2019-02-08T17:51:48.892Z,29.23
2019-02-08T17:54:25.517Z,31.90
2019-02-08T17:56:50.526Z,27.80
2019-02-08T17:59:20.112Z,25.07
2019-02-08T18:01:50.370Z,32.70
2019-02-08T18:04:20.069Z,27.77
2019-02-08T18:06:50.405Z,38.27
2019-02-08T18:09:20.106Z,31.60
2019-02-08T18:11:50.307Z,30.70
2019-02-08T18:14:20.682Z,30.13
2019-02-08T18:16:50.442Z,26.27
2019-02-08T18:19:19.975Z,27.20
2019-02-08T18:21:49.591Z,26.30
2019-02-08T18:24:19.237Z,21.73
2019-02-08T18:26:49.028Z,32.33
2019-02-08T18:29:18.819Z,22.40
2019-02-08T18:31:48.435Z,33.23
2019-02-08T18:34:18.310Z,28.83
2019-02-08T18:36:47.898Z,24.70
2019-02-08T18:39:17.457Z,26.27
2019-02-08T18:41:47.103Z,26.60
2019-02-08T18:44:16.699Z,30.07
2019-02-08T18:46:46.411Z,39.53
2019-02-08T18:49:16.054Z,27.20
2019-02-08T18:51:45.702Z,25.67
2019-02-08T18:54:15.386Z,27.33
2019-02-08T18:56:44.986Z,28.97
2019-02-08T18:59:14.571Z,28.63
2019-02-08T19:01:44.198Z,28.80
2019-02-08T19:04:13.812Z,30.60
2019-02-08T19:06:43.415Z,31.60
2019-02-08T19:09:12.999Z,26.20
2019-02-08T19:11:42.678Z,32.33
2019-02-08T19:14:12.395Z,25.03
2019-02-08T19:16:41.986Z,44.80
2019-02-08T19:19:11.558Z,46.80
2019-02-08T19:21:41.094Z,37.70
2019-02-08T19:24:10.707Z,34.23
2019-02-08T19:26:40.282Z,27.03
2019-02-08T19:29:09.982Z,26.17
2019-02-08T19:31:40.211Z,29.07
2019-02-08T19:34:09.927Z,32.50
2019-02-08T19:36:39.528Z,28.60
2019-02-08T19:39:09.494Z,27.40
2019-02-08T19:41:39.128Z,41.93
2019-02-08T19:44:08.722Z,33.13
2019-02-08T19:46:38.350Z,32.27
2019-02-08T19:49:07.924Z,40.27
2019-02-08T19:51:37.504Z,29.87
2019-02-08T19:54:07.086Z,29.73
2019-02-08T19:56:36.753Z,43.23
2019-02-08T19:59:06.308Z,36.70
2019-02-08T20:01:35.947Z,49.00
2019-02-08T20:04:05.679Z,40.33
2019-02-08T20:06:35.366Z,46.53
2019-02-08T20:09:07.048Z,49.33
2019-02-08T20:11:36.696Z,37.37
2019-02-08T20:14:06.343Z,56.30
2019-02-08T20:16:35.956Z,53.30
2019-02-08T20:19:05.584Z,50.37
2019-02-08T20:21:35.191Z,68.63
2019-02-08T20:24:04.852Z,48.37
2019-02-08T20:26:34.474Z,49.50
2019-02-08T20:29:04.219Z,52.40
2019-02-08T20:31:33.903Z,55.10
2019-02-08T20:34:03.614Z,54.70
2019-02-08T20:36:33.314Z,59.60
2019-02-08T20:39:03.374Z,55.83
2019-02-08T20:41:33.043Z,57.10
2019-02-08T20:44:02.767Z,64.40
2019-02-08T20:46:33.067Z,58.43
2019-02-08T20:49:02.758Z,57.03
2019-02-08T20:51:32.711Z,67.67
2019-02-08T20:54:03.193Z,60.17
2019-02-08T20:56:32.924Z,53.63
2019-02-08T20:59:02.545Z,55.53
2019-02-08T21:01:32.288Z,57.47
2019-02-08T21:04:02.013Z,58.60
2019-02-08T21:06:31.607Z,63.80
2019-02-08T21:09:01.215Z,59.87
2019-02-08T21:11:30.883Z,61.03
2019-02-08T21:14:00.523Z,67.87
2019-02-08T21:16:30.132Z,69.77
2019-02-08T21:18:59.777Z,65.93
2019-02-08T21:21:29.411Z,64.90
2019-02-08T21:23:59.062Z,70.10
2019-02-08T21:26:28.697Z,55.65
2019-02-08T21:28:58.394Z,51.47
2019-02-08T21:31:28.663Z,65.07
2019-02-08T21:33:59.014Z,50.23
2019-02-08T21:36:28.713Z,53.53
2019-02-08T21:38:58.351Z,49.27
2019-02-08T21:41:27.986Z,42.07
2019-02-08T21:43:57.605Z,36.37
2019-02-08T21:46:27.201Z,43.53
2019-02-08T21:48:56.886Z,41.10
2019-02-08T21:51:26.487Z,37.03
2019-02-08T21:53:56.098Z,38.40
2019-02-08T21:56:26.343Z,28.17
2019-02-08T21:58:56.276Z,33.10
2019-02-08T22:01:25.913Z,32.93
2019-02-08T22:03:55.546Z,45.13
2019-02-08T22:06:25.167Z,39.90
2019-02-08T22:08:54.825Z,50.17
2019-02-08T22:11:24.451Z,44.03
2019-02-08T22:13:54.091Z,36.47
2019-02-08T22:16:23.731Z,39.77
2019-02-08T22:18:53.367Z,30.10
2019-02-08T22:21:23.030Z,32.27
2019-02-08T22:23:53.356Z,29.60
2019-02-08T22:26:23.028Z,30.87
2019-02-08T22:28:52.619Z,29.43
2019-02-08T22:31:22.921Z,28.77
2019-02-08T22:33:52.569Z,25.70
2019-02-08T22:36:22.176Z,21.03
2019-02-08T22:38:51.790Z,19.60
2019-02-08T22:41:21.394Z,21.57
2019-02-08T22:43:50.970Z,25.53
2019-02-08T22:46:22.634Z,16.60
2019-02-08T22:48:52.239Z,24.10
2019-02-08T22:51:21.855Z,20.60
2019-02-08T22:53:51.449Z,23.37
2019-02-08T22:56:21.047Z,20.83
2019-02-08T22:58:50.666Z,25.13
2019-02-08T23:01:28.671Z,17.97
2019-02-08T23:03:59.201Z,21.47
2019-02-08T23:06:28.810Z,22.47
2019-02-08T23:08:58.660Z,25.67
2019-02-08T23:11:28.408Z,26.73
2019-02-08T23:13:58.728Z,17.57
2019-02-08T23:16:28.403Z,19.80
2019-02-08T23:18:58.667Z,23.73
2019-02-08T23:21:28.359Z,20.77
2019-02-08T23:23:58.663Z,21.77
2019-02-08T23:26:28.346Z,15.40
2019-02-08T23:28:58.623Z,20.87
2019-02-08T23:31:28.307Z,21.17
2019-02-08T23:33:57.858Z,24.87
2019-02-08T23:36:27.462Z,27.87
2019-02-08T23:38:57.134Z,29.50
2019-02-08T23:41:26.773Z,28.17
2019-02-08T23:43:56.319Z,33.67
2019-02-08T23:46:26.756Z,25.80
2019-02-08T23:48:56.467Z,31.17
2019-02-08T23:51:26.771Z,26.43
2019-02-08T23:53:56.441Z,29.43
2019-02-08T23:56:26.073Z,26.42
2019-02-08T23:58:55.652Z,31.57
